sensor_id;sensor_type;location;lat;lon;timestamp;temperature;humidity
63299;DHT22;54535;52.138;5.398;2022-09-09T00:03:45;16.50;99.90
63299;DHT22;54535;52.138;5.398;2022-09-09T00:06:24;16.50;99.90
63299;DHT22;54535;52.138;5.398;2022-09-09T00:14:07;16.60;99.90
63299;DHT22;54535;52.138;5.398;2022-09-09T00:16:35;16.60;99.90
63299;DHT22;54535;52.138;5.398;2022-09-09T00:19:23;16.60;99.90
63299;DHT22;54535;52.138;5.398;2022-09-09T00:21:57;16.60;99.90
63299;DHT22;54535;52.138;5.398;2022-09-09T00:24:42;16.60;99.90
63299;DHT22;54535;52.138;5.398;2022-09-09T00:32:42;16.50;99.90
63299;DHT22;54535;52.138;5.398;2022-09-09T00:37:36;16.50;99.90
63299;DHT22;54535;52.138;5.398;2022-09-09T00:40:08;16.50;99.90
63299;DHT22;54535;52.138;5.398;2022-09-09T00:42:43;16.50;99.90
63299;DHT22;54535;52.138;5.398;2022-09-09T00:45:26;16.60;99.90
63299;DHT22;54535;52.138;5.398;2022-09-09T00:47:54;16.60;99.90
63299;DHT22;54535;52.138;5.398;2022-09-09T00:53:18;16.60;99.90
63299;DHT22;54535;52.138;5.398;2022-09-09T00:55:54;16.50;99.90
63299;DHT22;54535;52.138;5.398;2022-09-09T00:58:22;16.40;99.90
63299;DHT22;54535;52.138;5.398;2022-09-09T01:00:57;16.30;99.90
63299;DHT22;54535;52.138;5.398;2022-09-09T01:06:22;16.20;99.90
63299;DHT22;54535;52.138;5.398;2022-09-09T01:22:09;15.90;99.90
63299;DHT22;54535;52.138;5.398;2022-09-09T01:24:40;15.90;99.90
63299;DHT22;54535;52.138;5.398;2022-09-09T01:27:16;15.90;99.90
63299;DHT22;54535;52.138;5.398;2022-09-09T01:29:44;15.80;99.90
63299;DHT22;54535;52.138;5.398;2022-09-09T01:34:58;15.80;99.90
63299;DHT22;54535;52.138;5.398;2022-09-09T01:37:24;15.80;99.90
63299;DHT22;54535;52.138;5.398;2022-09-09T01:39:51;15.80;99.90
63299;DHT22;54535;52.138;5.398;2022-09-09T01:42:18;15.80;99.90
63299;DHT22;54535;52.138;5.398;2022-09-09T01:44:45;15.70;99.90
63299;DHT22;54535;52.138;5.398;2022-09-09T01:47:12;15.70;99.90
63299;DHT22;54535;52.138;5.398;2022-09-09T01:50:00;15.80;99.90
63299;DHT22;54535;52.138;5.398;2022-09-09T01:52:28;15.80;99.90
63299;DHT22;54535;52.138;5.398;2022-09-09T01:54:56;15.70;99.90
63299;DHT22;54535;52.138;5.398;2022-09-09T02:00:15;15.80;99.90
63299;DHT22;54535;52.138;5.398;2022-09-09T02:05:37;15.80;99.90
63299;DHT22;54535;52.138;5.398;2022-09-09T02:08:11;15.80;99.90
63299;DHT22;54535;52.138;5.398;2022-09-09T02:10:51;15.70;99.90
63299;DHT22;54535;52.138;5.398;2022-09-09T02:13:31;15.80;99.90
63299;DHT22;54535;52.138;5.398;2022-09-09T02:16:00;15.80;99.90
63299;DHT22;54535;52.138;5.398;2022-09-09T02:18:35;15.80;99.90
63299;DHT22;54535;52.138;5.398;2022-09-09T02:21:06;15.90;99.90
63299;DHT22;54535;52.138;5.398;2022-09-09T02:23:33;15.90;99.90
63299;DHT22;54535;52.138;5.398;2022-09-09T02:26:04;16.10;99.90
63299;DHT22;54535;52.138;5.398;2022-09-09T02:28:31;16.10;99.90
63299;DHT22;54535;52.138;5.398;2022-09-09T02:30:59;16.20;99.90
63299;DHT22;54535;52.138;5.398;2022-09-09T02:33:35;16.20;99.90
63299;DHT22;54535;52.138;5.398;2022-09-09T02:36:03;16.20;99.90
63299;DHT22;54535;52.138;5.398;2022-09-09T02:38:34;16.10;99.90
63299;DHT22;54535;52.138;5.398;2022-09-09T02:41:08;16.10;99.90
63299;DHT22;54535;52.138;5.398;2022-09-09T02:43:35;16.00;99.90
63299;DHT22;54535;52.138;5.398;2022-09-09T02:48:55;15.90;99.90
63299;DHT22;54535;52.138;5.398;2022-09-09T02:54:16;15.90;99.90
63299;DHT22;54535;52.138;5.398;2022-09-09T02:56:45;15.90;99.90
63299;DHT22;54535;52.138;5.398;2022-09-09T02:59:14;15.90;99.90
63299;DHT22;54535;52.138;5.398;2022-09-09T03:01:41;15.90;99.90
63299;DHT22;54535;52.138;5.398;2022-09-09T03:04:09;16.00;99.90
63299;DHT22;54535;52.138;5.398;2022-09-09T03:06:36;16.00;99.90
63299;DHT22;54535;52.138;5.398;2022-09-09T03:09:13;15.90;99.90
63299;DHT22;54535;52.138;5.398;2022-09-09T03:11:40;15.90;99.90
63299;DHT22;54535;52.138;5.398;2022-09-09T03:14:07;15.90;99.90
63299;DHT22;54535;52.138;5.398;2022-09-09T03:16:35;15.90;99.90
63299;DHT22;54535;52.138;5.398;2022-09-09T03:19:02;15.90;99.90
63299;DHT22;54535;52.138;5.398;2022-09-09T03:21:29;15.90;99.90
63299;DHT22;54535;52.138;5.398;2022-09-09T03:23:56;15.70;99.90
63299;DHT22;54535;52.138;5.398;2022-09-09T03:26:23;15.60;99.90
63299;DHT22;54535;52.138;5.398;2022-09-09T03:28:51;15.70;99.90
63299;DHT22;54535;52.138;5.398;2022-09-09T03:31:21;15.70;99.90
63299;DHT22;54535;52.138;5.398;2022-09-09T03:33:48;15.70;99.90
63299;DHT22;54535;52.138;5.398;2022-09-09T03:36:17;15.80;99.90
63299;DHT22;54535;52.138;5.398;2022-09-09T03:38:44;15.80;99.90
63299;DHT22;54535;52.138;5.398;2022-09-09T03:41:11;15.80;99.90
63299;DHT22;54535;52.138;5.398;2022-09-09T03:43:39;15.80;99.90
63299;DHT22;54535;52.138;5.398;2022-09-09T03:46:06;15.80;99.90
63299;DHT22;54535;52.138;5.398;2022-09-09T03:48:33;15.90;99.90
63299;DHT22;54535;52.138;5.398;2022-09-09T03:51:00;15.80;99.90
63299;DHT22;54535;52.138;5.398;2022-09-09T03:53:30;15.70;99.90
63299;DHT22;54535;52.138;5.398;2022-09-09T03:55:57;15.70;99.90
63299;DHT22;54535;52.138;5.398;2022-09-09T03:58:27;15.60;99.90
63299;DHT22;54535;52.138;5.398;2022-09-09T04:01:01;15.70;99.90
63299;DHT22;54535;52.138;5.398;2022-09-09T04:03:28;15.60;99.90
63299;DHT22;54535;52.138;5.398;2022-09-09T04:05:56;15.60;99.90
63299;DHT22;54535;52.138;5.398;2022-09-09T04:08:25;15.70;99.90
63299;DHT22;54535;52.138;5.398;2022-09-09T04:10:53;15.70;99.90
63299;DHT22;54535;52.138;5.398;2022-09-09T04:13:20;15.70;99.90
63299;DHT22;54535;52.138;5.398;2022-09-09T04:15:51;15.60;99.90
63299;DHT22;54535;52.138;5.398;2022-09-09T04:18:18;15.50;99.90
63299;DHT22;54535;52.138;5.398;2022-09-09T04:20:50;15.50;99.90
63299;DHT22;54535;52.138;5.398;2022-09-09T04:23:19;15.40;99.90
63299;DHT22;54535;52.138;5.398;2022-09-09T04:25:47;15.40;99.90
63299;DHT22;54535;52.138;5.398;2022-09-09T04:28:15;15.40;99.90
63299;DHT22;54535;52.138;5.398;2022-09-09T04:30:43;15.50;99.90
63299;DHT22;54535;52.138;5.398;2022-09-09T04:33:10;15.50;99.90
63299;DHT22;54535;52.138;5.398;2022-09-09T04:35:37;15.60;99.90
63299;DHT22;54535;52.138;5.398;2022-09-09T04:38:04;15.50;99.90
63299;DHT22;54535;52.138;5.398;2022-09-09T04:40:32;15.50;99.90
63299;DHT22;54535;52.138;5.398;2022-09-09T04:43:01;15.60;99.90
63299;DHT22;54535;52.138;5.398;2022-09-09T04:45:29;15.60;99.90
63299;DHT22;54535;52.138;5.398;2022-09-09T04:47:57;15.60;99.90
63299;DHT22;54535;52.138;5.398;2022-09-09T04:50:23;15.70;99.90
63299;DHT22;54535;52.138;5.398;2022-09-09T04:52:59;15.80;99.90
63299;DHT22;54535;52.138;5.398;2022-09-09T04:55:27;15.80;99.90
63299;DHT22;54535;52.138;5.398;2022-09-09T04:57:53;15.70;99.90
63299;DHT22;54535;52.138;5.398;2022-09-09T05:00:20;15.70;99.90
63299;DHT22;54535;52.138;5.398;2022-09-09T05:02:48;15.80;99.90
63299;DHT22;54535;52.138;5.398;2022-09-09T05:05:15;15.70;99.90
63299;DHT22;54535;52.138;5.398;2022-09-09T05:07:42;15.70;99.90
63299;DHT22;54535;52.138;5.398;2022-09-09T05:10:09;15.60;99.90
63299;DHT22;54535;52.138;5.398;2022-09-09T05:12:36;15.70;99.90
63299;DHT22;54535;52.138;5.398;2022-09-09T05:15:03;15.60;99.90
63299;DHT22;54535;52.138;5.398;2022-09-09T05:17:30;15.60;99.90
63299;DHT22;54535;52.138;5.398;2022-09-09T05:19:57;15.60;99.90
63299;DHT22;54535;52.138;5.398;2022-09-09T05:22:24;15.60;99.90
63299;DHT22;54535;52.138;5.398;2022-09-09T05:24:52;15.60;99.90
63299;DHT22;54535;52.138;5.398;2022-09-09T05:27:19;15.60;99.90
63299;DHT22;54535;52.138;5.398;2022-09-09T05:29:47;15.70;99.90
63299;DHT22;54535;52.138;5.398;2022-09-09T05:32:14;15.80;99.90
63299;DHT22;54535;52.138;5.398;2022-09-09T05:34:45;15.70;99.90
63299;DHT22;54535;52.138;5.398;2022-09-09T05:37:13;15.80;99.90
63299;DHT22;54535;52.138;5.398;2022-09-09T05:39:41;15.80;99.90
63299;DHT22;54535;52.138;5.398;2022-09-09T05:42:09;15.80;99.90
63299;DHT22;54535;52.138;5.398;2022-09-09T05:44:35;15.70;99.90
63299;DHT22;54535;52.138;5.398;2022-09-09T05:47:02;15.60;99.90
63299;DHT22;54535;52.138;5.398;2022-09-09T05:49:29;15.60;99.90
63299;DHT22;54535;52.138;5.398;2022-09-09T05:51:55;15.60;99.90
63299;DHT22;54535;52.138;5.398;2022-09-09T05:54:23;15.60;99.90
63299;DHT22;54535;52.138;5.398;2022-09-09T05:56:51;15.60;99.90
63299;DHT22;54535;52.138;5.398;2022-09-09T05:59:19;15.60;99.90
63299;DHT22;54535;52.138;5.398;2022-09-09T06:01:47;15.60;99.90
63299;DHT22;54535;52.138;5.398;2022-09-09T06:04:21;15.70;99.90
63299;DHT22;54535;52.138;5.398;2022-09-09T06:06:49;15.70;99.90
63299;DHT22;54535;52.138;5.398;2022-09-09T06:09:18;15.70;99.90
63299;DHT22;54535;52.138;5.398;2022-09-09T06:11:45;15.60;99.90
63299;DHT22;54535;52.138;5.398;2022-09-09T06:14:13;15.70;99.90
63299;DHT22;54535;52.138;5.398;2022-09-09T06:16:44;15.60;99.90
63299;DHT22;54535;52.138;5.398;2022-09-09T06:19:23;15.60;99.90
63299;DHT22;54535;52.138;5.398;2022-09-09T06:21:51;15.60;99.90
63299;DHT22;54535;52.138;5.398;2022-09-09T06:24:18;15.70;99.90
63299;DHT22;54535;52.138;5.398;2022-09-09T06:26:46;15.80;99.90
63299;DHT22;54535;52.138;5.398;2022-09-09T06:29:20;15.80;99.90
63299;DHT22;54535;52.138;5.398;2022-09-09T06:31:47;15.80;99.90
63299;DHT22;54535;52.138;5.398;2022-09-09T06:34:19;15.80;99.90
63299;DHT22;54535;52.138;5.398;2022-09-09T06:36:50;15.90;99.90
63299;DHT22;54535;52.138;5.398;2022-09-09T06:39:18;15.90;99.90
63299;DHT22;54535;52.138;5.398;2022-09-09T06:41:45;16.00;99.90
63299;DHT22;54535;52.138;5.398;2022-09-09T06:44:33;16.10;99.90
63299;DHT22;54535;52.138;5.398;2022-09-09T06:47:03;16.20;99.90
63299;DHT22;54535;52.138;5.398;2022-09-09T06:49:31;16.20;99.90
63299;DHT22;54535;52.138;5.398;2022-09-09T06:51:59;16.30;99.90
63299;DHT22;54535;52.138;5.398;2022-09-09T06:54:27;16.40;99.90
63299;DHT22;54535;52.138;5.398;2022-09-09T06:56:55;16.50;99.90
63299;DHT22;54535;52.138;5.398;2022-09-09T06:59:24;16.50;99.90
63299;DHT22;54535;52.138;5.398;2022-09-09T07:01:53;16.50;99.90
63299;DHT22;54535;52.138;5.398;2022-09-09T07:04:23;16.50;99.90
63299;DHT22;54535;52.138;5.398;2022-09-09T07:06:50;16.50;99.90
63299;DHT22;54535;52.138;5.398;2022-09-09T07:09:23;16.50;99.90
63299;DHT22;54535;52.138;5.398;2022-09-09T07:11:52;16.60;99.90
63299;DHT22;54535;52.138;5.398;2022-09-09T07:14:23;16.60;99.90
63299;DHT22;54535;52.138;5.398;2022-09-09T07:16:57;16.70;99.90
63299;DHT22;54535;52.138;5.398;2022-09-09T07:19:27;16.80;99.90
63299;DHT22;54535;52.138;5.398;2022-09-09T07:21:55;16.80;99.90
63299;DHT22;54535;52.138;5.398;2022-09-09T07:24:23;16.80;99.90
63299;DHT22;54535;52.138;5.398;2022-09-09T07:26:51;16.80;99.90
63299;DHT22;54535;52.138;5.398;2022-09-09T07:29:19;16.90;99.90
63299;DHT22;54535;52.138;5.398;2022-09-09T07:31:48;16.90;99.90
63299;DHT22;54535;52.138;5.398;2022-09-09T07:34:22;17.00;99.90
63299;DHT22;54535;52.138;5.398;2022-09-09T07:36:50;16.90;99.90
63299;DHT22;54535;52.138;5.398;2022-09-09T07:39:18;16.90;99.90
63299;DHT22;54535;52.138;5.398;2022-09-09T07:41:49;17.00;99.90
63299;DHT22;54535;52.138;5.398;2022-09-09T07:44:20;17.00;99.90
63299;DHT22;54535;52.138;5.398;2022-09-09T07:46:52;17.10;99.90
63299;DHT22;54535;52.138;5.398;2022-09-09T07:49:25;17.20;99.90
63299;DHT22;54535;52.138;5.398;2022-09-09T07:51:59;17.30;99.90
63299;DHT22;54535;52.138;5.398;2022-09-09T07:54:26;17.40;99.90
63299;DHT22;54535;52.138;5.398;2022-09-09T07:56:53;17.50;99.90
63299;DHT22;54535;52.138;5.398;2022-09-09T07:59:23;17.60;99.90
63299;DHT22;54535;52.138;5.398;2022-09-09T08:01:52;17.60;99.90
63299;DHT22;54535;52.138;5.398;2022-09-09T08:04:26;17.70;99.90
63299;DHT22;54535;52.138;5.398;2022-09-09T08:06:59;17.60;99.90
63299;DHT22;54535;52.138;5.398;2022-09-09T08:09:28;17.60;99.90
63299;DHT22;54535;52.138;5.398;2022-09-09T08:12:05;17.60;99.90
63299;DHT22;54535;52.138;5.398;2022-09-09T08:14:33;17.60;99.90
63299;DHT22;54535;52.138;5.398;2022-09-09T08:17:01;17.60;99.90
63299;DHT22;54535;52.138;5.398;2022-09-09T08:19:30;17.60;99.90
63299;DHT22;54535;52.138;5.398;2022-09-09T08:22:00;17.50;99.90
63299;DHT22;54535;52.138;5.398;2022-09-09T08:24:29;17.50;99.90
63299;DHT22;54535;52.138;5.398;2022-09-09T08:26:56;17.40;99.90
63299;DHT22;54535;52.138;5.398;2022-09-09T08:29:24;17.30;99.90
63299;DHT22;54535;52.138;5.398;2022-09-09T08:31:53;17.30;99.90
63299;DHT22;54535;52.138;5.398;2022-09-09T08:34:21;17.30;99.90
63299;DHT22;54535;52.138;5.398;2022-09-09T08:36:50;17.30;99.90
63299;DHT22;54535;52.138;5.398;2022-09-09T08:39:21;17.20;99.90
63299;DHT22;54535;52.138;5.398;2022-09-09T08:44:22;17.30;99.90
63299;DHT22;54535;52.138;5.398;2022-09-09T08:47:01;17.30;99.90
63299;DHT22;54535;52.138;5.398;2022-09-09T08:52:13;17.30;99.90
63299;DHT22;54535;52.138;5.398;2022-09-09T08:54:42;17.40;99.90
63299;DHT22;54535;52.138;5.398;2022-09-09T08:57:25;17.50;99.90
63299;DHT22;54535;52.138;5.398;2022-09-09T08:59:54;17.50;99.90
63299;DHT22;54535;52.138;5.398;2022-09-09T09:02:25;17.50;99.90
63299;DHT22;54535;52.138;5.398;2022-09-09T09:04:58;17.60;99.80
63299;DHT22;54535;52.138;5.398;2022-09-09T09:13:03;17.70;99.90
63299;DHT22;54535;52.138;5.398;2022-09-09T09:15:33;17.70;99.80
63299;DHT22;54535;52.138;5.398;2022-09-09T09:18:04;17.80;99.40
63299;DHT22;54535;52.138;5.398;2022-09-09T09:23:05;17.70;99.50
63299;DHT22;54535;52.138;5.398;2022-09-09T09:25:34;17.70;99.40
63299;DHT22;54535;52.138;5.398;2022-09-09T09:28:18;17.70;99.40
63299;DHT22;54535;52.138;5.398;2022-09-09T09:30:57;17.60;99.20
63299;DHT22;54535;52.138;5.398;2022-09-09T09:33:31;17.60;99.40
63299;DHT22;54535;52.138;5.398;2022-09-09T09:36:00;17.70;99.40
63299;DHT22;54535;52.138;5.398;2022-09-09T09:38:28;17.70;99.50
63299;DHT22;54535;52.138;5.398;2022-09-09T09:41:15;17.70;99.40
63299;DHT22;54535;52.138;5.398;2022-09-09T09:43:52;17.70;99.20
63299;DHT22;54535;52.138;5.398;2022-09-09T09:46:20;17.70;99.30
63299;DHT22;54535;52.138;5.398;2022-09-09T09:51:24;17.70;99.10
63299;DHT22;54535;52.138;5.398;2022-09-09T09:53:51;17.70;98.80
63299;DHT22;54535;52.138;5.398;2022-09-09T09:56:27;17.80;98.90
63299;DHT22;54535;52.138;5.398;2022-09-09T09:58:58;17.80;99.00
63299;DHT22;54535;52.138;5.398;2022-09-09T10:01:32;17.80;99.10
63299;DHT22;54535;52.138;5.398;2022-09-09T10:04:14;17.90;99.00
63299;DHT22;54535;52.138;5.398;2022-09-09T10:06:42;17.90;98.90
63299;DHT22;54535;52.138;5.398;2022-09-09T10:09:25;17.90;98.80
63299;DHT22;54535;52.138;5.398;2022-09-09T10:19:40;18.00;98.70
63299;DHT22;54535;52.138;5.398;2022-09-09T10:22:18;18.00;98.90
63299;DHT22;54535;52.138;5.398;2022-09-09T10:24:58;18.00;98.80
63299;DHT22;54535;52.138;5.398;2022-09-09T10:30:12;18.00;98.80
63299;DHT22;54535;52.138;5.398;2022-09-09T10:32:45;18.00;98.60
63299;DHT22;54535;52.138;5.398;2022-09-09T10:35:27;18.00;98.90
63299;DHT22;54535;52.138;5.398;2022-09-09T10:40:29;18.00;99.90
63299;DHT22;54535;52.138;5.398;2022-09-09T10:43:04;17.90;99.90
63299;DHT22;54535;52.138;5.398;2022-09-09T10:45:49;17.90;99.90
63299;DHT22;54535;52.138;5.398;2022-09-09T10:48:23;17.80;99.90
63299;DHT22;54535;52.138;5.398;2022-09-09T10:50:55;17.70;99.90
63299;DHT22;54535;52.138;5.398;2022-09-09T10:56:13;17.70;99.90
63299;DHT22;54535;52.138;5.398;2022-09-09T10:58:47;17.70;99.90
63299;DHT22;54535;52.138;5.398;2022-09-09T11:03:44;17.60;99.90
63299;DHT22;54535;52.138;5.398;2022-09-09T11:06:14;17.60;99.90
63299;DHT22;54535;52.138;5.398;2022-09-09T11:08:43;17.70;99.90
63299;DHT22;54535;52.138;5.398;2022-09-09T11:14:05;18.00;99.90
63299;DHT22;54535;52.138;5.398;2022-09-09T11:19:11;18.20;99.90
63299;DHT22;54535;52.138;5.398;2022-09-09T11:21:42;18.20;99.90
63299;DHT22;54535;52.138;5.398;2022-09-09T11:24:13;18.20;99.90
63299;DHT22;54535;52.138;5.398;2022-09-09T11:29:43;18.30;99.90
63299;DHT22;54535;52.138;5.398;2022-09-09T11:44:33;18.40;99.30
63299;DHT22;54535;52.138;5.398;2022-09-09T11:47:00;18.50;99.30
63299;DHT22;54535;52.138;5.398;2022-09-09T11:49:28;18.40;98.80
63299;DHT22;54535;52.138;5.398;2022-09-09T11:51:54;18.50;99.00
63299;DHT22;54535;52.138;5.398;2022-09-09T11:54:31;18.50;98.70
63299;DHT22;54535;52.138;5.398;2022-09-09T11:56:58;18.40;98.80
63299;DHT22;54535;52.138;5.398;2022-09-09T11:59:29;18.40;99.30
63299;DHT22;54535;52.138;5.398;2022-09-09T12:02:03;18.20;99.90
63299;DHT22;54535;52.138;5.398;2022-09-09T12:04:37;18.20;99.90
63299;DHT22;54535;52.138;5.398;2022-09-09T12:09:52;18.20;99.90
63299;DHT22;54535;52.138;5.398;2022-09-09T12:15:00;18.20;99.90
63299;DHT22;54535;52.138;5.398;2022-09-09T12:17:28;18.30;99.90
63299;DHT22;54535;52.138;5.398;2022-09-09T12:20:08;18.20;99.90
63299;DHT22;54535;52.138;5.398;2022-09-09T12:22:46;18.10;99.90
63299;DHT22;54535;52.138;5.398;2022-09-09T12:25:18;18.20;99.90
63299;DHT22;54535;52.138;5.398;2022-09-09T12:28:03;18.00;99.90
63299;DHT22;54535;52.138;5.398;2022-09-09T12:30:41;17.90;99.90
63299;DHT22;54535;52.138;5.398;2022-09-09T12:33:10;17.90;99.90
63299;DHT22;54535;52.138;5.398;2022-09-09T12:35:39;17.80;99.90
63299;DHT22;54535;52.138;5.398;2022-09-09T12:38:07;17.80;99.90
63299;DHT22;54535;52.138;5.398;2022-09-09T12:40:38;17.80;99.90
63299;DHT22;54535;52.138;5.398;2022-09-09T12:43:16;17.90;99.90
63299;DHT22;54535;52.138;5.398;2022-09-09T12:45:43;18.10;99.90
63299;DHT22;54535;52.138;5.398;2022-09-09T12:48:11;18.20;99.90
63299;DHT22;54535;52.138;5.398;2022-09-09T12:50:38;18.40;99.90
63299;DHT22;54535;52.138;5.398;2022-09-09T12:53:10;18.50;99.90
63299;DHT22;54535;52.138;5.398;2022-09-09T12:55:49;18.60;99.90
63299;DHT22;54535;52.138;5.398;2022-09-09T12:58:16;18.60;99.90
63299;DHT22;54535;52.138;5.398;2022-09-09T13:00:50;18.70;99.90
63299;DHT22;54535;52.138;5.398;2022-09-09T13:03:19;18.80;99.90
63299;DHT22;54535;52.138;5.398;2022-09-09T13:05:47;18.90;99.90
63299;DHT22;54535;52.138;5.398;2022-09-09T13:08:14;18.80;99.90
63299;DHT22;54535;52.138;5.398;2022-09-09T13:10:44;18.90;99.80
63299;DHT22;54535;52.138;5.398;2022-09-09T13:13:25;19.10;99.50
63299;DHT22;54535;52.138;5.398;2022-09-09T13:15:52;19.50;99.30
63299;DHT22;54535;52.138;5.398;2022-09-09T13:18:21;20.20;99.90
63299;DHT22;54535;52.138;5.398;2022-09-09T13:20:49;20.60;96.00
63299;DHT22;54535;52.138;5.398;2022-09-09T13:23:16;20.50;95.40
63299;DHT22;54535;52.138;5.398;2022-09-09T13:25:52;20.30;95.80
63299;DHT22;54535;52.138;5.398;2022-09-09T13:28:20;20.20;95.90
63299;DHT22;54535;52.138;5.398;2022-09-09T13:30:55;20.20;96.20
63299;DHT22;54535;52.138;5.398;2022-09-09T13:36:07;19.90;96.60
63299;DHT22;54535;52.138;5.398;2022-09-09T13:41:04;19.70;97.10
63299;DHT22;54535;52.138;5.398;2022-09-09T13:43:34;19.60;97.20
63299;DHT22;54535;52.138;5.398;2022-09-09T13:46:03;19.50;97.50
63299;DHT22;54535;52.138;5.398;2022-09-09T13:48:30;19.60;97.60
63299;DHT22;54535;52.138;5.398;2022-09-09T13:51:02;19.60;97.80
63299;DHT22;54535;52.138;5.398;2022-09-09T13:53:31;19.70;97.70
63299;DHT22;54535;52.138;5.398;2022-09-09T13:55:57;19.60;97.40
63299;DHT22;54535;52.138;5.398;2022-09-09T13:58:24;19.60;97.60
63299;DHT22;54535;52.138;5.398;2022-09-09T14:00:52;19.60;97.60
63299;DHT22;54535;52.138;5.398;2022-09-09T14:03:19;19.60;97.60
63299;DHT22;54535;52.138;5.398;2022-09-09T14:05:46;19.60;97.30
63299;DHT22;54535;52.138;5.398;2022-09-09T14:08:16;19.50;97.40
63299;DHT22;54535;52.138;5.398;2022-09-09T14:10:45;19.50;97.50
63299;DHT22;54535;52.138;5.398;2022-09-09T14:13:11;19.40;97.80
63299;DHT22;54535;52.138;5.398;2022-09-09T14:15:38;19.40;97.70
63299;DHT22;54535;52.138;5.398;2022-09-09T14:18:05;19.40;97.70
63299;DHT22;54535;52.138;5.398;2022-09-09T14:20:32;19.40;97.80
63299;DHT22;54535;52.138;5.398;2022-09-09T14:22:59;19.40;97.90
63299;DHT22;54535;52.138;5.398;2022-09-09T14:25:29;19.40;98.10
63299;DHT22;54535;52.138;5.398;2022-09-09T14:27:55;19.40;98.00
63299;DHT22;54535;52.138;5.398;2022-09-09T14:30:22;19.20;98.30
63299;DHT22;54535;52.138;5.398;2022-09-09T14:32:49;19.20;98.50
63299;DHT22;54535;52.138;5.398;2022-09-09T14:35:16;19.20;98.50
63299;DHT22;54535;52.138;5.398;2022-09-09T14:37:44;19.10;99.00
63299;DHT22;54535;52.138;5.398;2022-09-09T14:40:11;19.00;99.30
63299;DHT22;54535;52.138;5.398;2022-09-09T14:42:38;18.90;99.60
63299;DHT22;54535;52.138;5.398;2022-09-09T14:45:04;18.80;99.90
63299;DHT22;54535;52.138;5.398;2022-09-09T14:47:31;18.70;99.90
63299;DHT22;54535;52.138;5.398;2022-09-09T14:49:58;18.60;99.90
63299;DHT22;54535;52.138;5.398;2022-09-09T14:52:27;18.50;99.90
63299;DHT22;54535;52.138;5.398;2022-09-09T14:54:55;18.50;99.90
63299;DHT22;54535;52.138;5.398;2022-09-09T14:57:22;18.50;99.90
63299;DHT22;54535;52.138;5.398;2022-09-09T14:59:49;18.70;99.90
63299;DHT22;54535;52.138;5.398;2022-09-09T15:02:16;19.00;99.90
63299;DHT22;54535;52.138;5.398;2022-09-09T15:04:43;19.20;99.90
63299;DHT22;54535;52.138;5.398;2022-09-09T15:07:10;19.30;99.90
63299;DHT22;54535;52.138;5.398;2022-09-09T15:09:37;19.30;99.90
63299;DHT22;54535;52.138;5.398;2022-09-09T15:12:03;19.40;99.90
63299;DHT22;54535;52.138;5.398;2022-09-09T15:14:31;19.70;99.90
63299;DHT22;54535;52.138;5.398;2022-09-09T15:16:57;20.20;99.90
63299;DHT22;54535;52.138;5.398;2022-09-09T15:19:24;20.30;99.80
63299;DHT22;54535;52.138;5.398;2022-09-09T15:21:50;20.30;98.80
63299;DHT22;54535;52.138;5.398;2022-09-09T15:24:17;20.20;98.90
63299;DHT22;54535;52.138;5.398;2022-09-09T15:26:44;20.30;97.40
63299;DHT22;54535;52.138;5.398;2022-09-09T15:29:11;20.40;97.30
63299;DHT22;54535;52.138;5.398;2022-09-09T15:31:38;20.30;97.20
63299;DHT22;54535;52.138;5.398;2022-09-09T15:34:06;20.20;97.50
63299;DHT22;54535;52.138;5.398;2022-09-09T15:36:36;20.10;97.00
63299;DHT22;54535;52.138;5.398;2022-09-09T15:39:04;20.00;97.20
63299;DHT22;54535;52.138;5.398;2022-09-09T15:41:31;19.90;97.70
63299;DHT22;54535;52.138;5.398;2022-09-09T15:43:58;19.90;97.40
63299;DHT22;54535;52.138;5.398;2022-09-09T15:46:28;19.80;98.10
63299;DHT22;54535;52.138;5.398;2022-09-09T15:48:58;19.70;98.30
63299;DHT22;54535;52.138;5.398;2022-09-09T15:51:29;19.60;98.30
63299;DHT22;54535;52.138;5.398;2022-09-09T15:54:08;19.60;98.20
63299;DHT22;54535;52.138;5.398;2022-09-09T15:56:35;19.60;98.30
63299;DHT22;54535;52.138;5.398;2022-09-09T15:59:02;19.50;98.40
63299;DHT22;54535;52.138;5.398;2022-09-09T16:01:29;19.50;98.20
63299;DHT22;54535;52.138;5.398;2022-09-09T16:03:57;19.40;98.60
63299;DHT22;54535;52.138;5.398;2022-09-09T16:06:24;19.60;98.30
63299;DHT22;54535;52.138;5.398;2022-09-09T16:08:52;19.90;98.60
63299;DHT22;54535;52.138;5.398;2022-09-09T16:11:20;20.10;97.70
63299;DHT22;54535;52.138;5.398;2022-09-09T16:13:48;20.40;96.90
63299;DHT22;54535;52.138;5.398;2022-09-09T16:16:17;20.40;96.80
63299;DHT22;54535;52.138;5.398;2022-09-09T16:18:46;20.70;96.80
63299;DHT22;54535;52.138;5.398;2022-09-09T16:21:17;21.30;94.70
63299;DHT22;54535;52.138;5.398;2022-09-09T16:23:44;21.80;94.80
63299;DHT22;54535;52.138;5.398;2022-09-09T16:26:11;22.50;93.10
63299;DHT22;54535;52.138;5.398;2022-09-09T16:28:38;22.90;92.40
63299;DHT22;54535;52.138;5.398;2022-09-09T16:31:06;23.40;91.70
63299;DHT22;54535;52.138;5.398;2022-09-09T16:33:33;23.50;91.80
63299;DHT22;54535;52.138;5.398;2022-09-09T16:36:09;23.30;89.30
63299;DHT22;54535;52.138;5.398;2022-09-09T16:38:36;22.90;90.90
63299;DHT22;54535;52.138;5.398;2022-09-09T16:41:04;22.60;90.90
63299;DHT22;54535;52.138;5.398;2022-09-09T16:43:34;22.00;91.40
63299;DHT22;54535;52.138;5.398;2022-09-09T16:46:02;21.80;92.00
63299;DHT22;54535;52.138;5.398;2022-09-09T16:48:31;21.20;92.60
63299;DHT22;54535;52.138;5.398;2022-09-09T16:51:03;20.80;93.40
63299;DHT22;54535;52.138;5.398;2022-09-09T16:53:31;20.50;94.00
63299;DHT22;54535;52.138;5.398;2022-09-09T16:55:58;20.30;94.60
63299;DHT22;54535;52.138;5.398;2022-09-09T16:58:25;20.20;94.90
63299;DHT22;54535;52.138;5.398;2022-09-09T17:00:57;20.00;95.30
63299;DHT22;54535;52.138;5.398;2022-09-09T17:03:23;19.90;95.60
63299;DHT22;54535;52.138;5.398;2022-09-09T17:05:50;19.80;96.20
63299;DHT22;54535;52.138;5.398;2022-09-09T17:08:17;19.70;96.50
63299;DHT22;54535;52.138;5.398;2022-09-09T17:10:43;19.60;96.80
63299;DHT22;54535;52.138;5.398;2022-09-09T17:13:10;19.50;97.10
63299;DHT22;54535;52.138;5.398;2022-09-09T17:15:40;19.40;97.00
63299;DHT22;54535;52.138;5.398;2022-09-09T17:18:09;19.40;97.30
63299;DHT22;54535;52.138;5.398;2022-09-09T17:20:37;19.30;97.30
63299;DHT22;54535;52.138;5.398;2022-09-09T17:23:12;19.30;97.50
63299;DHT22;54535;52.138;5.398;2022-09-09T17:25:41;19.20;97.50
63299;DHT22;54535;52.138;5.398;2022-09-09T17:28:08;19.20;97.70
63299;DHT22;54535;52.138;5.398;2022-09-09T17:30:35;19.20;97.60
63299;DHT22;54535;52.138;5.398;2022-09-09T17:33:03;19.20;97.80
63299;DHT22;54535;52.138;5.398;2022-09-09T17:35:30;19.20;97.90
63299;DHT22;54535;52.138;5.398;2022-09-09T17:37:57;19.10;98.00
63299;DHT22;54535;52.138;5.398;2022-09-09T17:40:24;19.10;98.20